Time;durP1;ratioP1;P1;durP2;ratioP2;P2;SDS_P1;SDS_P2;PMS_P1;PMS_P2;Temp;Humidity;BMP_temperature;BMP_pressure;BME280_temperature;BME280_humidity;BME280_pressure;Samples;Min_cycle;Max_cycle;Signal;HPM_P1;HPM_P2
2022/05/27 00:03:06;;;;;;;12.47;5.20;;;;;;;;;;10368284;28;20052;-58
2022/05/27 00:08:07;;;;;;;11.07;5.45;;;;;;;;;;10384856;28;20490;-57
2022/05/27 00:13:07;;;;;;;11.15;4.75;;;;;;;;;;10408703;28;20164;-58
2022/05/27 00:18:08;;;;;;;11.25;5.15;;;;;;;;;;10405424;28;20117;-58
2022/05/27 00:23:09;;;;;;;7.78;4.50;;;;;;;;;;10407178;28;20026;-58
2022/05/27 00:28:10;;;;;;;9.07;5.07;;;;;;;;;;10408032;28;20059;-57
2022/05/27 00:33:10;;;;;;;10.65;4.82;;;;;;;;;;10371283;28;20034;-58
2022/05/27 00:38:12;;;;;;;12.75;5.07;;;;;;;;;;10366759;28;20390;-59
2022/05/27 00:43:12;;;;;;;10.45;4.57;;;;;;;;;;10397677;28;20045;-57
2022/05/27 00:48:15;;;;;;;8.75;4.32;;;;;;;;;;10389631;28;20033;-57
2022/05/27 00:53:23;;;;;;;8.25;4.60;;;;;;;;;;10382932;28;20029;-58
2022/05/27 00:58:25;;;;;;;;;;;;;;;;;;10415791;28;20037;-58
2022/05/27 01:03:26;;;;;;;6.38;4.20;;;;;;;;;;10395663;28;19917;-63
2022/05/27 01:08:28;;;;;;;13.13;4.72;;;;;;;;;;10397018;28;20029;-61
2022/05/27 01:13:40;;;;;;;11.15;4.38;;;;;;;;;;10397626;28;20041;-60
2022/05/27 01:24:33;;;;;;;7.35;4.65;;;;;;;;;;10374177;28;20037;-58
2022/05/27 01:29:36;;;;;;;8.25;4.50;;;;;;;;;;10388300;28;20045;-62
2022/05/27 01:34:43;;;;;;;6.70;4.45;;;;;;;;;;10373582;28;20386;-61
2022/05/27 01:40:01;;;;;;;7.00;4.00;;;;;;;;;;10375966;28;20392;-61
2022/05/27 01:45:22;;;;;;;10.13;4.47;;;;;;;;;;10386616;28;20026;-60
2022/05/27 01:50:35;;;;;;;8.25;4.03;;;;;;;;;;10374892;28;20045;-60
2022/05/27 01:55:43;;;;;;;7.57;4.28;;;;;;;;;;10332845;28;20030;-62
2022/05/27 02:00:47;;;;;;;7.88;4.32;;;;;;;;;;10326479;28;20021;-62
2022/05/27 02:06:04;;;;;;;5.55;4.07;;;;;;;;;;10412064;28;20049;-57
2022/05/27 02:11:11;;;;;;;5.60;3.80;;;;;;;;;;10392883;28;20025;-58
2022/05/27 02:16:16;;;;;;;8.57;4.20;;;;;;;;;;10392676;28;20092;-57
2022/05/27 02:21:21;;;;;;;10.07;4.05;;;;;;;;;;10394516;28;20044;-60
2022/05/27 02:26:26;;;;;;;6.32;3.67;;;;;;;;;;10362937;28;20029;-58
2022/05/27 02:31:30;;;;;;;6.38;4.10;;;;;;;;;;10356255;28;20026;-59
2022/05/27 02:36:55;;;;;;;9.50;3.72;;;;;;;;;;10392774;28;20045;-61
2022/05/27 02:42:05;;;;;;;8.00;3.78;;;;;;;;;;10393328;28;20045;-60
2022/05/27 02:47:26;;;;;;;8.25;4.05;;;;;;;;;;10393511;28;20033;-58
2022/05/27 02:53:04;;;;;;;7.50;4.10;;;;;;;;;;10389784;28;20371;-61
2022/05/27 02:58:05;;;;;;;6.22;3.22;;;;;;;;;;10399626;28;20034;-59
2022/05/27 03:03:05;;;;;;;9.52;3.95;;;;;;;;;;10370699;28;20030;-58
2022/05/27 03:08:11;;;;;;;5.27;3.70;;;;;;;;;;10406099;28;20027;-58
2022/05/27 03:13:29;;;;;;;5.10;3.70;;;;;;;;;;10409995;28;20490;-58
2022/05/27 03:18:45;;;;;;;6.13;3.47;;;;;;;;;;10370893;28;20037;-58
2022/05/27 03:23:50;;;;;;;6.28;3.80;;;;;;;;;;10368461;28;20026;-59
2022/05/27 03:29:09;;;;;;;6.47;3.83;;;;;;;;;;10382536;28;20061;-58
2022/05/27 03:34:29;;;;;;;5.03;3.35;;;;;;;;;;10371597;28;20532;-58
2022/05/27 03:39:36;;;;;;;8.75;3.20;;;;;;;;;;10391421;28;20044;-61
2022/05/27 03:44:37;;;;;;;7.03;3.75;;;;;;;;;;10384540;28;20038;-59
2022/05/27 03:49:37;;;;;;;4.45;3.35;;;;;;;;;;10366782;28;20033;-61
2022/05/27 03:54:38;;;;;;;8.53;3.50;;;;;;;;;;10368850;28;20025;-61
2022/05/27 03:59:38;;;;;;;6.47;3.70;;;;;;;;;;10368091;28;20482;-61
2022/05/27 04:04:39;;;;;;;5.00;3.57;;;;;;;;;;10367695;28;20951;-61
2022/05/27 04:09:39;;;;;;;6.13;3.47;;;;;;;;;;10368883;28;20553;-61
2022/05/27 04:14:39;;;;;;;4.60;3.33;;;;;;;;;;10367527;28;20807;-59
2022/05/27 04:19:40;;;;;;;5.47;3.60;;;;;;;;;;10368504;28;20456;-62
2022/05/27 04:24:41;;;;;;;7.93;3.40;;;;;;;;;;10367337;28;20444;-59
2022/05/27 04:29:44;;;;;;;3.90;2.85;;;;;;;;;;10373857;28;20386;-62
2022/05/27 04:34:44;;;;;;;9.98;3.25;;;;;;;;;;10374781;28;20440;-58
2022/05/27 04:39:45;;;;;;;4.97;3.47;;;;;;;;;;10393567;28;20087;-58
2022/05/27 04:44:45;;;;;;;4.07;3.00;;;;;;;;;;10400185;28;20468;-57
2022/05/27 04:49:53;;;;;;;3.83;2.67;;;;;;;;;;10374650;28;20051;-57
2022/05/27 04:54:54;;;;;;;4.28;2.83;;;;;;;;;;10381779;28;20025;-58
2022/05/27 04:59:55;;;;;;;4.40;3.08;;;;;;;;;;10415141;28;20033;-58
2022/05/27 05:04:56;;;;;;;4.97;3.30;;;;;;;;;;10394043;28;20041;-58
2022/05/27 05:09:58;;;;;;;8.73;2.95;;;;;;;;;;10373540;28;20371;-58
2022/05/27 05:14:58;;;;;;;8.70;3.80;;;;;;;;;;10399079;28;20477;-51
2022/05/27 05:19:58;;;;;;;15.50;11.63;;;;;;;;;;10379740;28;20034;-51
2022/05/27 05:24:59;;;;;;;21.90;12.80;;;;;;;;;;10375249;28;20482;-54
2022/05/27 05:29:59;;;;;;;27.25;14.43;;;;;;;;;;10360331;28;20475;-51
2022/05/27 05:35:00;;;;;;;16.67;10.98;;;;;;;;;;10394192;28;20042;-57
2022/05/27 05:40:01;;;;;;;24.55;10.27;;;;;;;;;;10379960;28;20504;-57
2022/05/27 05:45:02;;;;;;;24.73;9.98;;;;;;;;;;10373744;28;20042;-54
2022/05/27 05:50:02;;;;;;;26.60;12.48;;;;;;;;;;10365751;28;20492;-57
2022/05/27 05:55:04;;;;;;;17.98;11.02;;;;;;;;;;10342444;28;20382;-53
2022/05/27 06:00:06;;;;;;;22.83;10.25;;;;;;;;;;10381359;28;20052;-57
2022/05/27 06:05:07;;;;;;;17.63;8.68;;;;;;;;;;10412288;28;20022;-56
2022/05/27 06:10:09;;;;;;;18.42;8.20;;;;;;;;;;10377513;28;20114;-57
2022/05/27 06:15:11;;;;;;;16.70;7.75;;;;;;;;;;10339830;28;20466;-56
2022/05/27 06:20:12;;;;;;;23.73;7.57;;;;;;;;;;10333653;28;20585;-56
2022/05/27 06:25:13;;;;;;;15.98;7.75;;;;;;;;;;10332052;28;20110;-54
2022/05/27 06:35:34;;;;;;;19.92;7.03;;;;;;;;;;10372660;28;20054;-55
2022/05/27 06:40:34;;;;;;;18.40;6.68;;;;;;;;;;10353539;28;20045;-58
2022/05/27 06:45:35;;;;;;;17.67;6.53;;;;;;;;;;10327475;28;20025;-58
2022/05/27 06:50:37;;;;;;;15.20;6.50;;;;;;;;;;10327794;28;20472;-55
2022/05/27 06:55:37;;;;;;;22.27;6.90;;;;;;;;;;10367208;28;20038;-55
2022/05/27 07:00:38;;;;;;;13.10;5.97;;;;;;;;;;10341620;28;20809;-58
2022/05/27 07:05:39;;;;;;;16.63;6.32;;;;;;;;;;10373136;28;20471;-55
2022/05/27 07:10:39;;;;;;;16.85;5.82;;;;;;;;;;10336976;28;20095;-57
2022/05/27 07:15:41;;;;;;;12.73;5.43;;;;;;;;;;10409673;28;20113;-57
2022/05/27 07:20:41;;;;;;;10.13;5.43;;;;;;;;;;10406106;28;20056;-55
2022/05/27 07:25:42;;;;;;;13.18;5.57;;;;;;;;;;10393515;28;20037;-57
2022/05/27 07:30:43;;;;;;;15.85;6.32;;;;;;;;;;10393759;28;20041;-57
2022/05/27 07:35:43;;;;;;;9.60;5.30;;;;;;;;;;10367609;28;20541;-57
2022/05/27 07:40:44;;;;;;;12.17;5.83;;;;;;;;;;10396366;28;20473;-58
2022/05/27 07:45:44;;;;;;;10.13;5.80;;;;;;;;;;10408727;28;20033;-56
2022/05/27 07:50:45;;;;;;;11.18;5.15;;;;;;;;;;10380508;28;20475;-57
2022/05/27 07:55:45;;;;;;;13.60;5.93;;;;;;;;;;10368561;28;20041;-57
2022/05/27 08:00:46;;;;;;;14.13;5.72;;;;;;;;;;10368320;28;20084;-57
2022/05/27 08:05:47;;;;;;;12.50;6.60;;;;;;;;;;10374244;28;20026;-55
2022/05/27 08:10:48;;;;;;;13.55;5.47;;;;;;;;;;10376759;28;20041;-56
2022/05/27 08:15:49;;;;;;;11.13;5.50;;;;;;;;;;10383819;28;20037;-56
2022/05/27 08:20:49;;;;;;;8.90;5.13;;;;;;;;;;10375757;28;20536;-57
2022/05/27 08:25:50;;;;;;;11.30;5.37;;;;;;;;;;10385548;28;20095;-54
2022/05/27 08:30:51;;;;;;;14.95;5.82;;;;;;;;;;10416035;28;20521;-57
2022/05/27 08:41:25;;;;;;;13.07;5.50;;;;;;;;;;10416129;28;20037;-56
2022/05/27 08:46:44;;;;;;;9.15;6.00;;;;;;;;;;10395017;28;20042;-55
2022/05/27 08:51:49;;;;;;;12.88;6.03;;;;;;;;;;10356957;28;20116;-56
2022/05/27 09:02:22;;;;;;;11.23;5.47;;;;;;;;;;10371273;28;20030;-56
2022/05/27 09:07:28;;;;;;;17.10;6.82;;;;;;;;;;10375713;28;20029;-57
2022/05/27 09:12:45;;;;;;;14.98;7.43;;;;;;;;;;10374184;28;20037;-55
2022/05/27 09:18:06;;;;;;;13.93;6.13;;;;;;;;;;10402517;28;20528;-55
2022/05/27 09:23:18;;;;;;;15.93;6.93;;;;;;;;;;10414227;28;20184;-54
2022/05/27 09:28:28;;;;;;;11.30;5.43;;;;;;;;;;10412246;28;20197;-56
2022/05/27 09:33:30;;;;;;;12.05;6.60;;;;;;;;;;10375763;28;20049;-57
2022/05/27 09:38:34;;;;;;;10.18;5.65;;;;;;;;;;10400126;28;20371;-55
2022/05/27 09:43:47;;;;;;;12.65;5.35;;;;;;;;;;10413369;28;20040;-55
2022/05/27 09:48:47;;;;;;;10.82;5.60;;;;;;;;;;10387763;28;20030;-55
2022/05/27 09:53:51;;;;;;;8.73;5.13;;;;;;;;;;10369898;28;20030;-55
2022/05/27 09:58:51;;;;;;;10.95;5.38;;;;;;;;;;10352055;28;21067;-57
2022/05/27 10:04:06;;;;;;;8.38;5.03;;;;;;;;;;10352313;28;20018;-56
2022/05/27 10:09:29;;;;;;;11.23;5.10;;;;;;;;;;10371135;28;20026;-57
2022/05/27 10:14:33;;;;;;;9.02;5.45;;;;;;;;;;10370643;28;20509;-56
2022/05/27 10:19:37;;;;;;;12.50;5.60;;;;;;;;;;10371630;28;20532;-56
2022/05/27 10:24:41;;;;;;;10.10;5.88;;;;;;;;;;10370611;28;20052;-57
2022/05/27 10:29:53;;;;;;;11.55;5.57;;;;;;;;;;10370368;28;20026;-56
2022/05/27 10:34:54;;;;;;;9.00;5.47;;;;;;;;;;10370428;28;20050;-57
2022/05/27 10:40:18;;;;;;;10.77;4.68;;;;;;;;;;10370838;28;20433;-56
2022/05/27 10:45:31;;;;;;;9.15;4.72;;;;;;;;;;10323844;28;20069;-55
2022/05/27 10:51:07;;;;;;;6.97;5.28;;;;;;;;;;10344831;28;20374;-56
2022/05/27 10:56:29;;;;;;;8.82;5.07;;;;;;;;;;10311637;28;20026;-57
2022/05/27 11:02:04;;;;;;;11.73;5.38;;;;;;;;;;10329046;28;20022;-53
2022/05/27 11:07:13;;;;;;;15.65;5.97;;;;;;;;;;10340542;28;20026;-55
2022/05/27 11:18:29;;;;;;;12.52;6.03;;;;;;;;;;10383704;28;20522;-58
2022/05/27 11:23:43;;;;;;;14.15;7.00;;;;;;;;;;10360984;28;20037;-57
2022/05/27 11:28:57;;;;;;;12.07;5.90;;;;;;;;;;10372328;28;20486;-58
2022/05/27 11:34:26;;;;;;;10.82;6.38;;;;;;;;;;10368415;28;20030;-58
2022/05/27 11:40:00;;;;;;;12.07;5.63;;;;;;;;;;10364855;28;20115;-57
2022/05/27 11:45:20;;;;;;;10.57;5.80;;;;;;;;;;10371743;28;20088;-55
2022/05/27 11:50:52;;;;;;;11.45;6.07;;;;;;;;;;10384035;28;20034;-57
2022/05/27 11:56:08;;;;;;;17.77;7.55;;;;;;;;;;10364921;28;20032;-57
2022/05/27 12:01:22;;;;;;;11.65;6.72;;;;;;;;;;10367776;28;20026;-57
2022/05/27 12:06:31;;;;;;;15.95;7.68;;;;;;;;;;10372989;28;20029;-57
2022/05/27 12:11:37;;;;;;;19.25;7.80;;;;;;;;;;10379396;28;20037;-58
2022/05/27 12:16:39;;;;;;;12.05;6.88;;;;;;;;;;10386373;28;20038;-57
2022/05/27 12:21:46;;;;;;;15.63;8.25;;;;;;;;;;10368232;28;20026;-58
2022/05/27 12:26:50;;;;;;;17.77;8.32;;;;;;;;;;10366225;28;20057;-57
2022/05/27 12:31:52;;;;;;;16.10;7.80;;;;;;;;;;10376539;28;20138;-56
2022/05/27 12:36:59;;;;;;;21.30;7.43;;;;;;;;;;10385022;28;20046;-55
2022/05/27 12:42:13;;;;;;;13.27;7.10;;;;;;;;;;10382036;28;20056;-55
2022/05/27 12:47:19;;;;;;;15.35;7.20;;;;;;;;;;10366710;28;20034;-58
2022/05/27 12:52:29;;;;;;;15.35;8.10;;;;;;;;;;10347387;28;20037;-57
2022/05/27 13:02:52;;;;;;;17.63;8.55;;;;;;;;;;10333438;28;20046;-57
2022/05/27 13:07:53;;;;;;;22.92;9.15;;;;;;;;;;10364841;28;20034;-57
2022/05/27 13:13:08;;;;;;;19.35;9.05;;;;;;;;;;10362969;28;20052;-56
2022/05/27 13:18:27;;;;;;;16.35;8.70;;;;;;;;;;10391835;28;20041;-55
2022/05/27 13:23:29;;;;;;;17.98;7.65;;;;;;;;;;10414495;28;20021;-57
2022/05/27 13:28:36;;;;;;;29.80;9.45;;;;;;;;;;10367642;28;20037;-56
2022/05/27 13:34:01;;;;;;;15.00;9.07;;;;;;;;;;10338804;28;20042;-54
2022/05/27 13:39:05;;;;;;;17.73;9.75;;;;;;;;;;10361362;28;20653;-55
2022/05/27 13:44:06;;;;;;;18.83;8.80;;;;;;;;;;10372501;28;20080;-55
2022/05/27 13:49:15;;;;;;;17.55;8.90;;;;;;;;;;10388902;28;20030;-55
2022/05/27 13:54:29;;;;;;;22.65;8.50;;;;;;;;;;10354652;28;20052;-55
2022/05/27 13:59:36;;;;;;;35.72;9.65;;;;;;;;;;10346731;28;20033;-57
2022/05/27 14:04:45;;;;;;;30.83;9.80;;;;;;;;;;10345314;28;20092;-57
2022/05/27 14:09:50;;;;;;;23.45;10.27;;;;;;;;;;10347028;28;20034;-57
2022/05/27 14:14:52;;;;;;;28.80;9.55;;;;;;;;;;10370327;28;20026;-57
2022/05/27 14:19:59;;;;;;;27.85;10.05;;;;;;;;;;10372478;28;20591;-57
2022/05/27 14:25:00;;;;;;;19.97;10.20;;;;;;;;;;10375733;28;20025;-55
2022/05/27 14:30:04;;;;;;;18.30;9.73;;;;;;;;;;10407847;28;20463;-57
2022/05/27 14:35:06;;;;;;;24.50;9.35;;;;;;;;;;10358889;28;20049;-55
2022/05/27 14:40:11;;;;;;;23.45;8.88;;;;;;;;;;10353740;28;20048;-55
2022/05/27 14:45:30;;;;;;;19.08;9.65;;;;;;;;;;10370003;28;20042;-55
2022/05/27 14:50:34;;;;;;;18.23;8.88;;;;;;;;;;10371148;28;20444;-57
2022/05/27 14:55:36;;;;;;;20.27;9.20;;;;;;;;;;10369663;28;20022;-57
2022/05/27 15:00:50;;;;;;;24.33;8.63;;;;;;;;;;10371470;28;20032;-56
2022/05/27 15:05:51;;;;;;;16.70;8.23;;;;;;;;;;10384474;28;20474;-55
2022/05/27 15:11:20;;;;;;;16.98;8.15;;;;;;;;;;10370094;28;20068;-56
2022/05/27 15:16:23;;;;;;;13.82;7.75;;;;;;;;;;10368917;28;20045;-57
2022/05/27 15:21:27;;;;;;;14.30;7.15;;;;;;;;;;10368760;28;20022;-56
2022/05/27 15:37:31;;;;;;;16.35;7.93;;;;;;;;;;10354452;28;20054;-56
2022/05/27 15:42:45;;;;;;;23.70;7.77;;;;;;;;;;10368281;28;20022;-56
2022/05/27 15:47:46;;;;;;;14.48;6.80;;;;;;;;;;10369305;28;20554;-55
2022/05/27 15:52:46;;;;;;;18.23;7.40;;;;;;;;;;10388373;28;20549;-55
2022/05/27 15:57:47;;;;;;;13.40;6.65;;;;;;;;;;10367696;28;20022;-57
2022/05/27 16:02:47;;;;;;;12.47;6.17;;;;;;;;;;10354030;28;20030;-56
2022/05/27 16:07:48;;;;;;;11.83;6.83;;;;;;;;;;10348096;28;20455;-55
2022/05/27 16:12:48;;;;;;;13.77;6.40;;;;;;;;;;10367097;28;20463;-56
2022/05/27 16:17:52;;;;;;;14.25;6.30;;;;;;;;;;10365876;28;20060;-57
2022/05/27 16:22:53;;;;;;;16.52;6.43;;;;;;;;;;10328710;28;20031;-55
2022/05/27 16:27:55;;;;;;;16.58;6.90;;;;;;;;;;10338127;28;20112;-56
2022/05/27 16:32:56;;;;;;;16.05;6.65;;;;;;;;;;10357327;28;20042;-56
2022/05/27 16:37:57;;;;;;;12.77;6.40;;;;;;;;;;10352117;28;20490;-55
2022/05/27 16:42:58;;;;;;;11.13;5.60;;;;;;;;;;10369400;28;20479;-57
2022/05/27 16:47:58;;;;;;;13.60;5.90;;;;;;;;;;10350715;28;20018;-55
2022/05/27 16:52:59;;;;;;;11.73;5.55;;;;;;;;;;10381711;28;21064;-55
2022/05/27 16:58:00;;;;;;;18.48;5.38;;;;;;;;;;10379183;28;20026;-55
2022/05/27 17:03:00;;;;;;;17.33;4.97;;;;;;;;;;10363763;28;20042;-56
2022/05/27 17:08:01;;;;;;;7.38;4.70;;;;;;;;;;10375330;28;20037;-55
2022/05/27 17:13:01;;;;;;;14.57;5.27;;;;;;;;;;10384977;28;20038;-55
2022/05/27 17:18:03;;;;;;;12.25;4.43;;;;;;;;;;10387632;28;20451;-55
2022/05/27 17:23:03;;;;;;;10.25;4.95;;;;;;;;;;10347110;28;20021;-57
2022/05/27 17:28:04;;;;;;;8.80;4.60;;;;;;;;;;10393186;28;20033;-57
2022/05/27 17:33:05;;;;;;;8.32;4.90;;;;;;;;;;10368850;28;20483;-57
2022/05/27 17:38:05;;;;;;;14.32;4.68;;;;;;;;;;10370545;28;20096;-56
2022/05/27 17:43:06;;;;;;;18.17;4.65;;;;;;;;;;10369802;28;20437;-57
2022/05/27 17:53:26;;;;;;;10.18;4.43;;;;;;;;;;10351412;28;20491;-57
2022/05/27 17:58:27;;;;;;;10.87;4.60;;;;;;;;;;10356891;28;20466;-57
2022/05/27 18:03:28;;;;;;;20.45;5.38;;;;;;;;;;10340624;28;20472;-56
2022/05/27 18:08:29;;;;;;;12.95;4.63;;;;;;;;;;10344636;28;20477;-56
2022/05/27 18:13:33;;;;;;;11.90;4.28;;;;;;;;;;10357762;28;20129;-56
2022/05/27 18:18:34;;;;;;;18.42;4.35;;;;;;;;;;10366030;28;20478;-56
2022/05/27 18:23:34;;;;;;;15.13;4.70;;;;;;;;;;10367153;28;20038;-55
2022/05/27 18:28:35;;;;;;;12.10;3.88;;;;;;;;;;10356955;28;20472;-56
2022/05/27 18:33:35;;;;;;;7.45;3.97;;;;;;;;;;10336633;28;20062;-58
2022/05/27 18:38:36;;;;;;;13.70;4.13;;;;;;;;;;10363128;28;20494;-54
2022/05/27 18:43:36;;;;;;;9.88;3.97;;;;;;;;;;10367261;28;20466;-58
2022/05/27 18:48:38;;;;;;;12.48;4.13;;;;;;;;;;10344620;28;20034;-54
2022/05/27 18:53:42;;;;;;;13.75;4.50;;;;;;;;;;10337060;28;20498;-54
2022/05/27 18:58:43;;;;;;;9.13;3.60;;;;;;;;;;10347764;28;20040;-53
2022/05/27 19:03:44;;;;;;;8.02;3.83;;;;;;;;;;10370886;28;20517;-58
2022/05/27 19:08:44;;;;;;;14.15;3.97;;;;;;;;;;10363883;28;20084;-57
2022/05/27 19:13:45;;;;;;;8.57;3.43;;;;;;;;;;10367158;28;20088;-57
2022/05/27 19:24:04;;;;;;;18.65;3.83;;;;;;;;;;10379232;28;20128;-57
2022/05/27 19:29:05;;;;;;;18.77;3.90;;;;;;;;;;10373839;28;20473;-56
2022/05/27 19:34:07;;;;;;;7.07;3.97;;;;;;;;;;10366418;28;20021;-58
2022/05/27 19:39:07;;;;;;;8.77;3.88;;;;;;;;;;10365679;28;20060;-59
2022/05/27 19:44:08;;;;;;;9.87;3.27;;;;;;;;;;10365018;28;20028;-58
2022/05/27 19:49:09;;;;;;;8.32;3.90;;;;;;;;;;10379870;28;20897;-58
2022/05/27 19:54:10;;;;;;;13.63;3.75;;;;;;;;;;10363459;28;20676;-57
2022/05/27 20:09:50;;;;;;;11.23;4.35;;;;;;;;;;10343720;28;20422;-58
2022/05/27 20:14:50;;;;;;;25.38;3.58;;;;;;;;;;10376380;28;20034;-57
2022/05/27 20:19:51;;;;;;;13.00;3.85;;;;;;;;;;10355889;28;20022;-58
2022/05/27 20:24:52;;;;;;;19.00;4.38;;;;;;;;;;10368745;28;20030;-58
2022/05/27 20:29:52;;;;;;;15.75;3.78;;;;;;;;;;10367559;28;20033;-58
2022/05/27 20:34:52;;;;;;;10.57;3.65;;;;;;;;;;10368540;28;20193;-58
2022/05/27 20:39:53;;;;;;;8.68;3.65;;;;;;;;;;10359745;28;20034;-58
2022/05/27 20:44:55;;;;;;;15.70;4.23;;;;;;;;;;10334795;28;20475;-58
2022/05/27 20:49:55;;;;;;;11.10;4.13;;;;;;;;;;10348324;28;20495;-59
2022/05/27 20:54:56;;;;;;;8.52;3.33;;;;;;;;;;10331500;28;20034;-58
2022/05/27 20:59:57;;;;;;;15.02;4.05;;;;;;;;;;10332401;28;20109;-58
2022/05/27 21:04:57;;;;;;;11.37;3.53;;;;;;;;;;10352424;28;20034;-59
2022/05/27 21:09:58;;;;;;;8.57;3.30;;;;;;;;;;10332682;28;21078;-59
2022/05/27 21:14:58;;;;;;;7.57;4.03;;;;;;;;;;10332376;28;20038;-59
2022/05/27 21:19:59;;;;;;;6.60;2.90;;;;;;;;;;10371893;28;20554;-59
2022/05/27 21:24:59;;;;;;;10.47;3.60;;;;;;;;;;10332449;28;20028;-59
2022/05/27 21:29:59;;;;;;;8.00;3.25;;;;;;;;;;10371199;28;20529;-58
2022/05/27 21:35:00;;;;;;;11.93;3.90;;;;;;;;;;10354099;28;20058;-58
2022/05/27 21:40:00;;;;;;;10.27;3.78;;;;;;;;;;10361884;28;20781;-58
2022/05/27 21:45:01;;;;;;;9.50;4.00;;;;;;;;;;10371759;28;20017;-58
2022/05/27 21:50:02;;;;;;;8.70;3.88;;;;;;;;;;10352921;28;21053;-58
2022/05/27 21:55:04;;;;;;;10.10;3.40;;;;;;;;;;10331423;28;20050;-58
2022/05/27 22:00:07;;;;;;;10.68;3.65;;;;;;;;;;10356619;28;20067;-57
2022/05/27 22:05:08;;;;;;;7.55;3.47;;;;;;;;;;10352836;28;20367;-59
2022/05/27 22:15:28;;;;;;;7.15;3.10;;;;;;;;;;10361225;28;20021;-58
2022/05/27 22:20:28;;;;;;;9.40;4.20;;;;;;;;;;10370438;28;20026;-58
2022/05/27 22:25:29;;;;;;;15.82;4.40;;;;;;;;;;10369262;28;20025;-58
2022/05/27 22:30:29;;;;;;;12.27;4.40;;;;;;;;;;10368734;28;20038;-59
2022/05/27 22:35:30;;;;;;;13.70;4.17;;;;;;;;;;10363082;28;20905;-57
2022/05/27 22:40:31;;;;;;;17.42;4.03;;;;;;;;;;10373051;28;20471;-61
2022/05/27 22:45:31;;;;;;;26.15;4.43;;;;;;;;;;10376423;28;20499;-58
2022/05/27 22:50:33;;;;;;;20.92;4.35;;;;;;;;;;10364209;28;20032;-59
2022/05/27 22:55:35;;;;;;;19.10;4.10;;;;;;;;;;10370309;28;20554;-60
2022/05/27 23:00:36;;;;;;;32.80;4.65;;;;;;;;;;10369477;28;20517;-58
2022/05/27 23:05:38;;;;;;;28.67;5.00;;;;;;;;;;10370892;28;20106;-58
2022/05/27 23:10:39;;;;;;;20.23;4.18;;;;;;;;;;10377200;28;20092;-58
2022/05/27 23:20:59;;;;;;;14.52;4.10;;;;;;;;;;10362026;28;20449;-58
2022/05/27 23:26:03;;;;;;;11.55;3.80;;;;;;;;;;10360501;28;20049;-58
2022/05/27 23:31:09;;;;;;;17.05;3.63;;;;;;;;;;10360814;28;20474;-58
2022/05/27 23:36:11;;;;;;;24.50;4.53;;;;;;;;;;10360070;28;20060;-57
2022/05/27 23:41:13;;;;;;;25.25;4.15;;;;;;;;;;10361646;28;20038;-58
2022/05/27 23:46:14;;;;;;;12.68;3.90;;;;;;;;;;10359065;28;20041;-59
2022/05/27 23:51:16;;;;;;;12.27;3.42;;;;;;;;;;10377563;28;20508;-58
2022/05/27 23:56:20;;;;;;;17.23;4.05;;;;;;;;;;10388213;28;20057;-58
